Time;durP1;ratioP1;P1;durP2;ratioP2;P2;SDS_P1;SDS_P2;PMS_P1;PMS_P2;Temp;Humidity;BMP_temperature;BMP_pressure;BME280_temperature;BME280_humidity;BME280_pressure;Samples;Min_cycle;Max_cycle;Signal;HPM_P1;HPM_P2
2024/02/16 00:00:58;;;;;;;1.53;1.40;;;12.60;99.90;;;;;;5021873;28;20219;-89
2024/02/16 00:03:24;;;;;;;1.77;1.67;;;12.60;99.90;;;;;;5012016;28;20295;-89
2024/02/16 00:05:51;;;;;;;2.43;2.13;;;12.60;99.90;;;;;;5002096;28;20246;-89
2024/02/16 00:08:18;;;;;;;5.47;2.10;;;12.60;99.90;;;;;;5003843;28;20699;-90
2024/02/16 00:10:44;;;;;;;2.03;1.83;;;12.50;99.90;;;;;;5018413;28;20233;-90
2024/02/16 00:13:10;;;;;;;1.10;1.10;;;12.50;99.90;;;;;;5001061;28;20214;-89
2024/02/16 00:15:38;;;;;;;3.47;2.30;;;12.50;99.90;;;;;;4984938;28;20193;-89
2024/02/16 00:18:05;;;;;;;1.83;1.20;;;12.40;99.90;;;;;;4994373;28;20665;-90
2024/02/16 00:20:31;;;;;;;1.33;1.23;;;12.40;99.90;;;;;;4994363;28;20229;-90
2024/02/16 00:22:57;;;;;;;1.27;1.13;;;12.40;99.90;;;;;;5016986;28;20289;-90
2024/02/16 00:25:23;;;;;;;3.20;1.57;;;12.40;99.90;;;;;;5015866;28;20239;-89
2024/02/16 00:27:52;;;;;;;1.03;0.97;;;12.40;99.90;;;;;;5014422;28;20227;-89
2024/02/16 00:30:22;;;;;;;2.03;1.70;;;12.40;99.90;;;;;;4986298;28;20204;-89
2024/02/16 00:32:48;;;;;;;1.57;1.43;;;12.30;99.90;;;;;;4996800;28;20230;-89
2024/02/16 00:35:17;;;;;;;3.63;1.53;;;12.30;99.90;;;;;;5014506;28;20231;-89
2024/02/16 00:37:43;;;;;;;2.77;2.63;;;12.30;99.90;;;;;;5010875;28;20591;-89
2024/02/16 00:40:11;;;;;;;3.63;1.67;;;12.30;99.90;;;;;;4986330;28;20231;-91
2024/02/16 00:42:37;;;;;;;1.47;1.03;;;12.30;99.90;;;;;;4995610;28;20555;-89
2024/02/16 00:45:04;;;;;;;1.90;1.00;;;12.20;99.90;;;;;;4998065;28;20199;-90
2024/02/16 00:47:29;;;;;;;2.67;1.57;;;12.20;99.90;;;;;;4996884;28;20223;-90
2024/02/16 00:49:56;;;;;;;4.17;1.47;;;12.20;99.90;;;;;;5003331;28;20277;-90
2024/02/16 00:52:22;;;;;;;5.80;1.77;;;12.20;99.90;;;;;;4978584;28;20323;-89
2024/02/16 00:54:49;;;;;;;4.57;2.47;;;12.20;99.90;;;;;;4981466;28;20313;-90
2024/02/16 00:57:15;;;;;;;3.90;2.30;;;12.10;99.90;;;;;;5004520;28;20219;-90
2024/02/16 00:59:41;;;;;;;2.17;1.47;;;12.10;99.90;;;;;;5004070;28;20214;-89
2024/02/16 01:02:07;;;;;;;5.03;1.60;;;12.10;99.90;;;;;;5013729;28;20286;-90
2024/02/16 01:04:33;;;;;;;2.23;2.03;;;12.10;99.90;;;;;;4994982;28;20228;-90
2024/02/16 01:07:00;;;;;;;9.03;1.37;;;12.00;99.90;;;;;;4994579;28;20693;-90
2024/02/16 01:09:26;;;;;;;1.23;0.83;;;12.00;99.90;;;;;;4980949;28;20314;-90
2024/02/16 01:11:52;;;;;;;1.73;1.63;;;12.00;99.90;;;;;;5005310;28;20289;-89
2024/02/16 01:14:18;;;;;;;1.77;1.67;;;11.90;99.90;;;;;;4997005;28;20323;-90
2024/02/16 01:16:45;;;;;;;1.80;1.40;;;12.00;99.90;;;;;;4998676;28;20306;-89
2024/02/16 01:19:11;;;;;;;1.90;1.80;;;11.90;99.90;;;;;;4999506;28;20247;-90
2024/02/16 01:21:37;;;;;;;2.33;1.80;;;11.90;99.90;;;;;;4984026;28;20243;-90
2024/02/16 01:24:03;;;;;;;4.37;1.87;;;11.90;99.90;;;;;;4968441;28;20207;-91
2024/02/16 01:26:29;;;;;;;1.20;1.20;;;11.80;99.90;;;;;;5001392;28;20284;-90
2024/02/16 01:28:55;;;;;;;2.17;1.07;;;11.80;99.90;;;;;;5002618;28;20303;-90
2024/02/16 01:31:21;;;;;;;1.80;1.57;;;11.80;99.90;;;;;;5002602;28;20235;-90
2024/02/16 01:33:47;;;;;;;1.60;1.33;;;11.80;99.90;;;;;;5012726;28;21763;-90
2024/02/16 01:36:14;;;;;;;2.30;2.10;;;11.80;99.90;;;;;;5000042;28;20203;-90
2024/02/16 01:38:40;;;;;;;1.43;1.33;;;11.70;99.90;;;;;;5018832;28;20687;-91
2024/02/16 01:41:08;;;;;;;3.33;1.10;;;11.70;99.90;;;;;;5013910;28;20230;-91
2024/02/16 01:43:34;;;;;;;0.80;0.80;;;11.70;99.90;;;;;;4999087;28;20310;-90
2024/02/16 01:46:00;;;;;;;1.00;0.97;;;11.70;99.90;;;;;;5020183;28;20254;-90
2024/02/16 01:48:27;;;;;;;1.13;1.10;;;11.70;99.90;;;;;;5003689;28;20539;-91
2024/02/16 01:50:54;;;;;;;1.63;1.53;;;11.70;99.90;;;;;;5017469;28;20275;-90
2024/02/16 01:53:21;;;;;;;1.80;1.43;;;11.70;99.90;;;;;;5007773;28;20572;-90
2024/02/16 01:55:47;;;;;;;4.63;1.30;;;11.60;99.90;;;;;;4998210;28;20242;-90
2024/02/16 01:58:13;;;;;;;1.20;0.77;;;11.60;99.90;;;;;;5006107;28;20596;-90
2024/02/16 02:00:43;;;;;;;1.33;1.23;;;11.70;99.90;;;;;;5021554;28;20203;-90
2024/02/16 02:03:09;;;;;;;3.07;1.27;;;11.50;99.90;;;;;;5023262;28;20241;-90
2024/02/16 02:05:45;;;;;;;1.93;1.20;;;11.60;99.90;;;;;;5002675;28;20285;-90
2024/02/16 02:08:12;;;;;;;1.37;1.37;;;11.50;99.90;;;;;;5025139;28;20242;-90
2024/02/16 02:10:38;;;;;;;1.70;1.60;;;11.60;99.90;;;;;;5017597;28;20223;-89
2024/02/16 02:13:04;;;;;;;2.93;2.10;;;11.50;99.90;;;;;;4989767;28;20228;-90
2024/02/16 02:15:29;;;;;;;2.43;1.90;;;11.50;99.90;;;;;;4987700;28;20211;-90
2024/02/16 02:17:58;;;;;;;2.87;2.67;;;11.50;99.90;;;;;;5007249;28;20231;-90
2024/02/16 02:20:24;;;;;;;0.90;0.87;;;11.50;99.90;;;;;;4992403;28;20216;-90
2024/02/16 02:22:49;;;;;;;2.60;1.20;;;11.60;99.90;;;;;;5007550;28;20283;-90
2024/02/16 02:25:15;;;;;;;1.53;1.07;;;11.60;99.90;;;;;;4993620;28;20223;-90
2024/02/16 02:27:42;;;;;;;3.37;2.00;;;11.60;99.90;;;;;;4990552;28;20211;-90
2024/02/16 02:30:09;;;;;;;1.40;1.30;;;11.60;99.90;;;;;;5023494;28;20199;-90
2024/02/16 02:32:35;;;;;;;2.00;1.50;;;11.60;99.90;;;;;;5023144;28;20218;-90
2024/02/16 02:35:03;;;;;;;2.43;1.53;;;11.60;99.90;;;;;;5022982;28;20234;-90
2024/02/16 02:37:30;;;;;;;1.67;1.40;;;11.70;99.90;;;;;;5022842;28;20223;-90
2024/02/16 02:39:56;;;;;;;2.33;2.23;;;11.60;99.90;;;;;;5021976;28;20225;-91
2024/02/16 02:42:22;;;;;;;0.87;0.87;;;11.70;99.90;;;;;;5007750;28;20716;-90
2024/02/16 02:44:51;;;;;;;1.17;1.17;;;11.70;99.90;;;;;;5018286;28;20619;-89
2024/02/16 02:47:17;;;;;;;0.70;0.70;;;11.60;99.90;;;;;;5019805;28;20215;-90
2024/02/16 02:49:44;;;;;;;1.70;1.60;;;11.60;99.90;;;;;;5024414;28;20235;-90
2024/02/16 02:52:10;;;;;;;2.63;2.00;;;11.70;99.90;;;;;;5019321;28;20228;-90
2024/02/16 02:54:36;;;;;;;0.97;0.97;;;11.70;99.90;;;;;;5007008;28;20642;-90
2024/02/16 02:57:03;;;;;;;0.93;0.90;;;11.70;99.90;;;;;;4988153;28;20251;-90
2024/02/16 02:59:29;;;;;;;2.50;1.70;;;11.70;99.90;;;;;;4999291;28;20294;-90
2024/02/16 03:01:56;;;;;;;1.87;1.67;;;11.60;99.90;;;;;;5003857;28;20228;-90
2024/02/16 03:04:22;;;;;;;1.03;0.97;;;11.60;99.90;;;;;;5012196;28;20242;-90
2024/02/16 03:06:51;;;;;;;1.47;1.03;;;11.50;99.90;;;;;;5007006;28;20222;-90
2024/02/16 03:09:16;;;;;;;1.20;0.90;;;11.50;99.90;;;;;;5003386;28;20242;-90
2024/02/16 03:11:42;;;;;;;4.57;0.90;;;11.50;99.90;;;;;;4995652;28;20235;-90
2024/02/16 03:14:08;;;;;;;0.73;0.73;;;11.50;99.90;;;;;;5017091;28;20630;-90
2024/02/16 03:16:34;;;;;;;0.87;0.87;;;11.40;99.90;;;;;;5025304;28;20242;-90
2024/02/16 03:19:00;;;;;;;1.17;1.07;;;11.40;99.90;;;;;;5025883;28;20227;-90
2024/02/16 03:21:29;;;;;;;2.77;1.83;;;11.50;99.90;;;;;;5007558;28;20234;-90
2024/02/16 03:23:56;;;;;;;1.73;1.00;;;11.40;99.90;;;;;;5023828;28;20216;-91
2024/02/16 03:26:22;;;;;;;1.23;1.13;;;11.40;99.90;;;;;;5007519;28;20231;-91
2024/02/16 03:28:49;;;;;;;3.50;1.03;;;11.40;99.90;;;;;;5022972;28;20313;-90
2024/02/16 03:31:23;;;;;;;0.60;0.60;;;11.40;99.90;;;;;;5025294;28;20289;-91
2024/02/16 03:33:51;;;;;;;2.10;1.50;;;11.30;99.90;;;;;;5022907;28;20254;-91
2024/02/16 03:36:18;;;;;;;0.83;0.83;;;11.40;99.90;;;;;;5024978;28;20191;-91
2024/02/16 03:38:46;;;;;;;0.93;0.83;;;11.40;99.90;;;;;;5007176;28;20229;-91
2024/02/16 03:41:14;;;;;;;1.23;0.80;;;11.40;99.90;;;;;;5016605;28;20250;-90
2024/02/16 03:43:41;;;;;;;1.60;1.37;;;11.40;99.90;;;;;;5015003;28;20235;-91
2024/02/16 03:46:08;;;;;;;1.60;1.43;;;11.40;99.90;;;;;;5020483;28;20251;-90
2024/02/16 03:48:35;;;;;;;1.90;1.00;;;11.40;99.90;;;;;;5012820;28;20231;-90
2024/02/16 03:51:02;;;;;;;1.43;0.87;;;11.40;99.90;;;;;;5022045;28;20222;-91
2024/02/16 03:53:29;;;;;;;1.90;1.73;;;11.40;99.90;;;;;;5021515;28;20227;-91
2024/02/16 03:55:55;;;;;;;0.73;0.73;;;11.50;99.90;;;;;;5016630;28;20304;-91
2024/02/16 03:58:22;;;;;;;1.90;1.13;;;11.50;99.90;;;;;;5019608;28;20243;-91
2024/02/16 04:00:54;;;;;;;2.13;1.57;;;11.50;99.90;;;;;;5022794;28;20263;-90
2024/02/16 04:03:39;;;;;;;1.23;1.13;;;11.50;99.90;;;;;;5023189;28;20203;-90
2024/02/16 04:06:09;;;;;;;1.90;1.80;;;11.50;99.90;;;;;;5024222;28;20190;-91
2024/02/16 04:08:35;;;;;;;2.83;1.53;;;11.50;99.90;;;;;;4993836;28;20247;-90
2024/02/16 04:11:01;;;;;;;1.23;0.83;;;11.60;99.90;;;;;;5007064;28;20212;-90
2024/02/16 04:13:27;;;;;;;1.93;1.27;;;11.60;99.90;;;;;;5016267;28;20223;-90
2024/02/16 04:15:53;;;;;;;1.13;1.07;;;11.50;99.90;;;;;;5023062;28;20270;-90
2024/02/16 04:18:19;;;;;;;1.63;1.50;;;11.60;99.90;;;;;;5021985;28;20603;-90
2024/02/16 04:20:46;;;;;;;2.43;1.70;;;11.60;99.90;;;;;;5014864;28;20259;-90
2024/02/16 04:23:12;;;;;;;2.60;0.93;;;11.50;99.90;;;;;;4981555;28;20228;-89
2024/02/16 04:25:38;;;;;;;1.10;1.00;;;11.50;99.90;;;;;;5021047;28;20227;-91
2024/02/16 04:28:05;;;;;;;1.20;0.80;;;11.40;99.90;;;;;;4988327;28;20247;-90
2024/02/16 04:30:33;;;;;;;2.27;1.83;;;11.40;99.90;;;;;;5003618;28;20291;-90
2024/02/16 04:32:59;;;;;;;1.90;1.60;;;11.30;99.90;;;;;;5039041;28;20203;-89
2024/02/16 04:35:26;;;;;;;1.13;1.07;;;11.30;99.90;;;;;;5020833;28;20230;-90
2024/02/16 04:37:52;;;;;;;2.07;1.93;;;11.30;99.90;;;;;;5022460;28;20231;-90
2024/02/16 04:40:21;;;;;;;2.23;1.60;;;11.20;99.90;;;;;;5022252;28;20247;-90
2024/02/16 04:42:46;;;;;;;1.73;0.90;;;11.20;99.90;;;;;;5016193;28;20300;-90
2024/02/16 04:45:13;;;;;;;1.10;0.73;;;11.20;99.90;;;;;;4981159;28;20192;-89
2024/02/16 04:47:42;;;;;;;1.60;1.50;;;11.20;99.90;;;;;;4952250;28;20232;-89
2024/02/16 04:50:11;;;;;;;5.47;1.10;;;11.30;99.90;;;;;;5014154;28;20235;-89
2024/02/16 04:52:41;;;;;;;1.90;0.80;;;11.20;99.90;;;;;;5021301;28;20227;-90
2024/02/16 04:55:07;;;;;;;1.60;1.17;;;11.30;99.90;;;;;;5006955;28;20313;-89
2024/02/16 04:57:34;;;;;;;1.07;0.90;;;11.30;99.90;;;;;;5022626;28;20262;-90
2024/02/16 05:00:00;;;;;;;2.33;0.97;;;11.40;99.90;;;;;;5023329;28;20226;-90
2024/02/16 05:02:25;;;;;;;0.97;0.70;;;11.30;99.90;;;;;;5010213;28;20647;-90
2024/02/16 05:04:51;;;;;;;0.97;0.97;;;11.30;99.90;;;;;;5003198;28;20231;-90
2024/02/16 05:07:20;;;;;;;0.53;0.53;;;11.30;99.90;;;;;;4994047;28;20215;-89
2024/02/16 05:09:46;;;;;;;0.93;0.93;;;11.30;99.90;;;;;;5019139;28;20326;-89
2024/02/16 05:12:12;;;;;;;1.23;1.00;;;11.30;99.90;;;;;;5021927;28;20231;-90
2024/02/16 05:14:41;;;;;;;1.73;1.13;;;11.20;99.90;;;;;;5016923;28;20216;-90
2024/02/16 05:17:07;;;;;;;2.20;1.67;;;11.10;99.90;;;;;;5002289;28;20243;-90
2024/02/16 05:19:34;;;;;;;2.07;1.50;;;11.10;99.90;;;;;;5012250;28;20242;-90
2024/02/16 05:22:00;;;;;;;6.23;0.93;;;11.10;99.90;;;;;;5007270;28;20227;-90
2024/02/16 05:24:26;;;;;;;1.17;1.07;;;11.10;99.90;;;;;;5023038;28;20202;-89
2024/02/16 05:26:52;;;;;;;1.10;1.00;;;11.10;99.90;;;;;;5011779;28;20231;-88
2024/02/16 05:29:17;;;;;;;0.90;0.90;;;11.00;99.90;;;;;;4990208;28;20236;-90
2024/02/16 05:31:43;;;;;;;1.20;1.10;;;10.90;99.90;;;;;;4962350;28;20672;-89
2024/02/16 05:34:09;;;;;;;1.30;1.20;;;10.90;99.90;;;;;;4997500;28;20223;-89
2024/02/16 05:36:36;;;;;;;1.30;1.23;;;10.90;99.90;;;;;;4994683;28;20640;-88
2024/02/16 05:39:19;;;;;;;1.57;1.47;;;10.80;99.90;;;;;;4991887;28;20214;-88
2024/02/16 05:41:47;;;;;;;0.50;0.50;;;10.80;99.90;;;;;;4997257;28;20306;-89
2024/02/16 05:44:13;;;;;;;1.63;0.77;;;10.80;99.90;;;;;;4976094;28;20263;-88
2024/02/16 05:46:42;;;;;;;0.80;0.80;;;10.80;99.90;;;;;;4975512;28;20223;-88
2024/02/16 05:49:08;;;;;;;1.00;0.90;;;10.80;99.90;;;;;;4979766;28;20779;-90
2024/02/16 05:51:40;;;;;;;1.33;0.97;;;10.80;99.90;;;;;;4978384;28;20232;-90
2024/02/16 05:54:07;;;;;;;1.60;1.27;;;10.90;99.90;;;;;;4980284;28;20211;-89
2024/02/16 05:56:34;;;;;;;3.97;1.77;;;10.90;99.90;;;;;;4992538;28;20228;-89
2024/02/16 05:59:00;;;;;;;1.00;0.83;;;10.90;99.90;;;;;;4992497;28;20310;-89
2024/02/16 06:01:27;;;;;;;7.67;1.33;;;11.00;99.90;;;;;;4994648;28;20263;-90
2024/02/16 06:03:53;;;;;;;3.13;1.73;;;11.00;99.90;;;;;;4984990;28;20231;-89
2024/02/16 06:06:19;;;;;;;1.47;1.37;;;11.00;99.90;;;;;;4996878;28;20715;-89
2024/02/16 06:08:45;;;;;;;2.53;1.77;;;10.90;99.90;;;;;;5014554;28;20266;-90
2024/02/16 06:11:10;;;;;;;1.70;1.00;;;11.00;99.90;;;;;;5006265;28;20735;-89
2024/02/16 06:13:36;;;;;;;0.83;0.83;;;10.90;99.90;;;;;;4993560;28;20306;-89
2024/02/16 06:16:08;;;;;;;1.40;1.17;;;10.90;99.90;;;;;;4995663;28;20227;-89
2024/02/16 06:18:35;;;;;;;1.20;1.10;;;10.90;99.90;;;;;;4997636;28;20239;-88
2024/02/16 06:21:02;;;;;;;0.70;0.70;;;10.80;99.90;;;;;;4999646;28;20210;-88
2024/02/16 06:23:27;;;;;;;1.30;1.20;;;10.80;99.90;;;;;;4996848;28;20342;-88
2024/02/16 06:25:53;;;;;;;0.87;0.87;;;10.80;99.90;;;;;;4994940;28;20233;-87
2024/02/16 06:28:19;;;;;;;3.50;1.33;;;10.80;99.90;;;;;;4994835;28;20243;-87
2024/02/16 06:30:45;;;;;;;1.17;1.07;;;10.80;99.90;;;;;;4987545;28;20282;-88
2024/02/16 06:33:11;;;;;;;0.97;0.97;;;10.70;99.90;;;;;;5004403;28;20569;-90
2024/02/16 06:35:36;;;;;;;2.10;1.50;;;10.70;99.90;;;;;;4977174;28;20315;-90
2024/02/16 06:38:02;;;;;;;1.17;1.17;;;10.70;99.90;;;;;;4980505;28;20223;-90
2024/02/16 06:40:29;;;;;;;0.87;0.83;;;10.60;99.90;;;;;;4981103;28;20230;-90
2024/02/16 06:42:56;;;;;;;2.00;1.43;;;10.70;99.90;;;;;;4990608;28;20226;-89
2024/02/16 06:45:22;;;;;;;3.13;1.10;;;10.70;99.90;;;;;;4960663;28;20200;-89
2024/02/16 06:47:49;;;;;;;1.37;1.30;;;10.60;99.90;;;;;;4994206;28;20581;-84
2024/02/16 06:50:15;;;;;;;1.80;0.77;;;10.60;99.90;;;;;;4990193;28;20732;-86
2024/02/16 06:52:40;;;;;;;2.63;1.77;;;10.70;99.90;;;;;;4968226;28;20250;-86
2024/02/16 06:55:06;;;;;;;1.10;1.00;;;10.60;99.90;;;;;;4990508;28;20215;-89
2024/02/16 06:57:33;;;;;;;7.87;2.10;;;10.70;99.90;;;;;;4975290;28;20199;-87
2024/02/16 06:59:59;;;;;;;1.90;1.37;;;10.70;99.90;;;;;;5010580;28;20261;-87
2024/02/16 07:02:25;;;;;;;1.63;1.33;;;10.80;99.90;;;;;;4990148;28;20726;-87
2024/02/16 07:04:51;;;;;;;1.00;0.90;;;10.80;99.90;;;;;;4994991;28;20238;-86
2024/02/16 07:07:18;;;;;;;1.53;1.43;;;10.80;99.90;;;;;;4998085;28;20562;-87
2024/02/16 07:09:44;;;;;;;0.97;0.90;;;10.80;99.90;;;;;;4976274;28;20734;-87
2024/02/16 07:12:12;;;;;;;2.37;1.77;;;10.80;99.90;;;;;;5027424;28;20656;-86
2024/02/16 07:14:38;;;;;;;3.13;1.93;;;10.90;99.90;;;;;;4993097;28;20242;-87
2024/02/16 07:17:04;;;;;;;2.10;1.50;;;10.80;99.90;;;;;;4993704;28;20254;-86
2024/02/16 07:19:29;;;;;;;0.83;0.83;;;10.80;99.90;;;;;;4989216;28;20320;-87
2024/02/16 07:21:55;;;;;;;2.70;1.77;;;10.80;99.90;;;;;;4988221;28;20224;-87
2024/02/16 07:24:21;;;;;;;1.43;1.20;;;10.80;99.90;;;;;;4975446;28;20200;-85
2024/02/16 07:26:48;;;;;;;1.30;0.90;;;10.90;99.90;;;;;;4990214;28;20267;-87
2024/02/16 07:29:16;;;;;;;1.33;1.23;;;10.90;99.90;;;;;;4990392;28;20376;-86
2024/02/16 07:31:42;;;;;;;1.67;1.27;;;10.90;99.90;;;;;;4989559;28;20354;-86
2024/02/16 07:34:08;;;;;;;1.40;1.30;;;10.90;99.90;;;;;;4990930;28;20311;-87
2024/02/16 07:36:36;;;;;;;1.87;1.57;;;10.90;99.90;;;;;;4973860;28;20604;-87
2024/02/16 07:39:04;;;;;;;1.50;1.20;;;10.90;99.90;;;;;;4973962;28;20196;-86
2024/02/16 07:41:30;;;;;;;2.10;1.67;;;11.00;99.90;;;;;;4974371;28;20231;-86
2024/02/16 07:43:56;;;;;;;1.43;1.33;;;11.10;99.90;;;;;;4973439;28;20220;-86
2024/02/16 07:46:22;;;;;;;2.43;2.00;;;11.10;99.90;;;;;;5004034;28;20239;-86
2024/02/16 07:48:48;;;;;;;1.47;1.27;;;11.20;99.90;;;;;;4974132;28;20236;-86
2024/02/16 07:51:17;;;;;;;2.53;2.10;;;11.30;99.90;;;;;;4974282;28;20211;-86
2024/02/16 07:53:46;;;;;;;1.77;1.63;;;11.30;99.90;;;;;;4989349;28;20232;-86
2024/02/16 07:56:15;;;;;;;1.87;1.77;;;11.40;99.90;;;;;;4973568;28;20282;-88
2024/02/16 07:58:43;;;;;;;6.60;1.53;;;11.40;99.90;;;;;;4990581;28;20251;-88
2024/02/16 08:01:15;;;;;;;1.80;1.57;;;11.40;99.90;;;;;;4973065;28;20220;-86
2024/02/16 08:03:41;;;;;;;4.03;1.77;;;11.50;99.90;;;;;;4989314;28;20688;-86
2024/02/16 08:06:07;;;;;;;1.37;1.27;;;11.50;99.90;;;;;;4973613;28;20200;-85
2024/02/16 08:08:33;;;;;;;1.23;1.07;;;11.50;99.90;;;;;;4973690;28;20228;-86
2024/02/16 08:10:59;;;;;;;1.73;1.53;;;11.50;99.90;;;;;;4973246;28;21051;-86
2024/02/16 08:13:24;;;;;;;1.70;1.60;;;11.60;99.90;;;;;;4990744;28;20245;-87
2024/02/16 08:15:51;;;;;;;2.27;1.57;;;11.60;99.90;;;;;;4973529;28;20322;-87
2024/02/16 08:18:17;;;;;;;0.93;0.93;;;11.70;99.90;;;;;;4976438;28;20243;-89
2024/02/16 08:20:43;;;;;;;0.80;0.80;;;11.70;99.90;;;;;;5000357;28;20266;-85
2024/02/16 08:23:09;;;;;;;1.13;1.13;;;11.80;99.90;;;;;;5002830;28;20230;-87
2024/02/16 08:25:35;;;;;;;1.03;0.77;;;11.80;99.90;;;;;;5002798;28;20646;-86
2024/02/16 08:28:01;;;;;;;1.13;1.03;;;11.90;99.90;;;;;;4998687;28;20232;-86
2024/02/16 08:30:27;;;;;;;1.80;1.17;;;12.00;99.90;;;;;;5002530;28;20196;-85
2024/02/16 08:32:53;;;;;;;0.97;0.97;;;12.00;99.90;;;;;;5001969;28;20229;-88
2024/02/16 08:35:20;;;;;;;2.63;0.90;;;12.00;99.90;;;;;;5002326;28;20222;-86
2024/02/16 08:37:45;;;;;;;1.90;1.63;;;12.00;99.90;;;;;;5024733;28;20227;-87
2024/02/16 08:40:15;;;;;;;1.73;1.40;;;11.90;99.90;;;;;;5018305;28;20281;-85
2024/02/16 08:42:44;;;;;;;1.13;1.13;;;11.90;99.90;;;;;;5018040;28;20715;-87
2024/02/16 08:45:12;;;;;;;1.37;1.27;;;11.90;99.90;;;;;;5015476;28;20196;-85
2024/02/16 08:47:39;;;;;;;2.20;1.40;;;11.90;99.90;;;;;;5001107;28;20223;-88
2024/02/16 08:50:04;;;;;;;5.50;2.50;;;11.80;99.90;;;;;;4999884;28;20235;-87
2024/02/16 08:52:32;;;;;;;2.47;0.97;;;11.90;99.90;;;;;;5009909;28;20235;-87
2024/02/16 08:54:57;;;;;;;1.47;1.37;;;12.00;99.90;;;;;;5002254;28;20229;-88
2024/02/16 08:57:24;;;;;;;2.00;1.73;;;12.00;99.90;;;;;;5017492;28;20203;-87
2024/02/16 08:59:49;;;;;;;1.37;1.10;;;12.10;99.90;;;;;;4999943;28;20650;-88
2024/02/16 09:02:15;;;;;;;3.43;2.90;;;12.10;99.90;;;;;;5001624;28;20254;-87
2024/02/16 09:04:41;;;;;;;2.90;1.30;;;12.10;99.90;;;;;;5000300;28;20256;-87
2024/02/16 09:07:07;;;;;;;3.53;1.80;;;12.10;99.90;;;;;;5017655;28;20301;-87
2024/02/16 09:09:33;;;;;;;1.70;1.47;;;12.10;99.90;;;;;;5001455;28;20227;-88
2024/02/16 09:11:59;;;;;;;2.30;1.60;;;12.10;99.90;;;;;;5001118;28;20209;-86
2024/02/16 09:14:24;;;;;;;1.53;1.43;;;12.20;99.90;;;;;;4998835;28;20215;-88
2024/02/16 09:16:53;;;;;;;5.27;1.77;;;12.20;99.90;;;;;;5001305;28;20286;-86
2024/02/16 09:19:22;;;;;;;1.73;1.63;;;12.40;99.90;;;;;;5000959;28;20300;-86
2024/02/16 09:21:49;;;;;;;2.47;2.00;;;12.60;99.90;;;;;;4999882;28;20190;-86
2024/02/16 09:24:17;;;;;;;1.93;1.83;;;12.60;99.90;;;;;;5016952;28;20214;-86
2024/02/16 09:26:45;;;;;;;2.43;1.43;;;12.60;99.90;;;;;;5001431;28;20233;-85
2024/02/16 09:29:15;;;;;;;6.60;2.40;;;12.70;99.90;;;;;;5016373;28;20400;-85
2024/02/16 09:31:41;;;;;;;1.80;1.70;;;12.70;99.90;;;;;;4999835;28;20230;-87
2024/02/16 09:34:10;;;;;;;3.20;2.90;;;12.60;99.90;;;;;;5009476;28;20281;-88
2024/02/16 09:36:37;;;;;;;1.53;1.43;;;12.60;99.90;;;;;;4999551;28;20206;-87
2024/02/16 09:39:03;;;;;;;2.67;2.43;;;12.50;99.90;;;;;;5002248;28;20191;-87
2024/02/16 09:41:29;;;;;;;5.10;3.37;;;12.50;99.90;;;;;;5032542;28;20694;-89
2024/02/16 09:43:55;;;;;;;2.20;2.10;;;12.50;99.90;;;;;;5019771;28;20703;-86
2024/02/16 09:46:23;;;;;;;16.07;2.33;;;12.40;99.90;;;;;;4992086;28;20237;-86
2024/02/16 09:48:52;;;;;;;5.23;2.77;;;12.40;99.90;;;;;;4996766;28;20254;-86
2024/02/16 09:51:18;;;;;;;3.17;1.97;;;12.40;99.90;;;;;;5005147;28;20211;-87
2024/02/16 09:53:54;;;;;;;2.73;1.67;;;12.30;99.90;;;;;;5015436;28;20721;-86
2024/02/16 09:56:21;;;;;;;3.40;3.07;;;12.30;99.90;;;;;;5025470;28;20229;-87
2024/02/16 09:58:47;;;;;;;3.57;1.80;;;12.20;99.90;;;;;;5010259;28;20234;-86
2024/02/16 10:01:29;;;;;;;3.53;3.20;;;12.20;99.90;;;;;;4993264;28;20215;-85
2024/02/16 10:04:06;;;;;;;6.07;2.50;;;12.20;99.90;;;;;;5024132;28;20256;-88
2024/02/16 10:06:32;;;;;;;3.97;3.53;;;12.10;99.90;;;;;;5016989;28;20660;-87
2024/02/16 10:08:58;;;;;;;2.10;2.00;;;12.10;99.90;;;;;;5015073;28;20314;-87
2024/02/16 10:11:27;;;;;;;6.20;2.77;;;11.90;99.90;;;;;;5000854;28;20680;-88
2024/02/16 10:14:01;;;;;;;10.33;3.23;;;11.90;99.90;;;;;;5019217;28;20234;-87
2024/02/16 10:16:30;;;;;;;4.73;1.87;;;11.90;99.90;;;;;;5001685;28;20215;-89
2024/02/16 10:19:06;;;;;;;3.07;2.77;;;11.80;99.90;;;;;;5002688;28;20231;-87
2024/02/16 10:21:33;;;;;;;4.23;3.30;;;11.70;99.90;;;;;;5000600;28;20718;-88
2024/02/16 10:24:00;;;;;;;6.10;2.17;;;11.80;99.90;;;;;;5001907;28;20238;-88
2024/02/16 10:26:26;;;;;;;4.50;2.53;;;11.80;99.90;;;;;;5020793;28;20218;-87
2024/02/16 10:28:56;;;;;;;5.57;3.73;;;11.70;99.90;;;;;;5012240;28;20222;-87
2024/02/16 10:31:27;;;;;;;3.97;3.60;;;11.70;99.90;;;;;;5020014;28;20223;-88
2024/02/16 10:34:05;;;;;;;3.27;3.00;;;11.60;99.90;;;;;;5020797;28;20229;-86
2024/02/16 10:36:35;;;;;;;2.93;2.73;;;11.60;99.90;;;;;;5004881;28;20252;-88
2024/02/16 10:39:04;;;;;;;3.83;2.37;;;11.50;99.90;;;;;;5020443;28;20245;-87
2024/02/16 10:41:34;;;;;;;2.53;2.23;;;11.50;99.90;;;;;;5022413;28;20273;-86
2024/02/16 10:44:01;;;;;;;2.37;2.17;;;11.40;99.90;;;;;;5004711;28;20223;-87
2024/02/16 10:46:27;;;;;;;6.33;3.10;;;11.40;99.90;;;;;;5016899;28;20276;-87
2024/02/16 10:48:56;;;;;;;12.43;2.70;;;11.30;99.90;;;;;;5020480;28;20699;-87
2024/02/16 10:51:34;;;;;;;9.07;2.60;;;11.30;99.90;;;;;;5004090;28;20196;-87
2024/02/16 10:54:01;;;;;;;5.17;2.60;;;11.40;99.90;;;;;;5021228;28;20271;-87
2024/02/16 10:56:37;;;;;;;3.93;2.27;;;11.20;99.90;;;;;;5019209;28;20231;-87
2024/02/16 10:59:11;;;;;;;2.40;2.20;;;11.30;99.90;;;;;;5002609;28;20215;-87
2024/02/16 11:01:45;;;;;;;3.27;1.80;;;11.20;99.90;;;;;;5004705;28;20272;-87
2024/02/16 11:04:19;;;;;;;4.40;2.97;;;11.20;99.90;;;;;;4994820;28;20280;-87
2024/02/16 11:07:11;;;;;;;2.10;1.90;;;11.20;99.90;;;;;;5020579;28;20210;-87
2024/02/16 11:09:39;;;;;;;1.93;1.57;;;11.20;99.90;;;;;;5018574;28;20223;-88
2024/02/16 11:12:12;;;;;;;3.90;1.83;;;11.10;99.90;;;;;;5018050;28;20206;-87
2024/02/16 11:14:40;;;;;;;2.10;1.70;;;11.10;99.90;;;;;;5029795;28;20211;-88
2024/02/16 11:17:09;;;;;;;1.13;0.90;;;11.10;99.90;;;;;;5019166;28;20230;-88
2024/02/16 11:19:36;;;;;;;1.03;0.90;;;11.20;99.90;;;;;;4997192;28;20274;-87
2024/02/16 11:22:08;;;;;;;3.50;1.30;;;11.10;99.90;;;;;;5026776;28;20302;-86
2024/02/16 11:24:35;;;;;;;0.73;0.73;;;11.20;99.90;;;;;;4993635;28;20187;-87
2024/02/16 11:27:05;;;;;;;1.63;1.47;;;11.10;99.90;;;;;;5010161;28;20230;-87
2024/02/16 11:29:35;;;;;;;2.20;0.93;;;11.00;99.90;;;;;;4993414;28;20773;-88
2024/02/16 11:32:03;;;;;;;0.50;0.50;;;11.10;99.90;;;;;;4989932;28;20226;-87
2024/02/16 11:34:29;;;;;;;1.43;1.20;;;11.10;99.90;;;;;;4991159;28;20243;-86
2024/02/16 11:36:56;;;;;;;0.83;0.83;;;10.90;99.90;;;;;;4992235;28;20257;-89
2024/02/16 11:39:23;;;;;;;0.70;0.70;;;11.00;99.90;;;;;;4994451;28;20215;-88
2024/02/16 11:42:02;;;;;;;1.90;0.97;;;11.00;99.90;;;;;;5010316;28;20231;-87
2024/02/16 11:44:31;;;;;;;0.80;0.63;;;10.90;99.90;;;;;;4993852;28;20234;-87
2024/02/16 11:46:57;;;;;;;2.13;0.70;;;10.90;99.90;;;;;;4992372;28;20227;-88
2024/02/16 11:49:23;;;;;;;0.30;0.30;;;10.90;99.90;;;;;;4993164;28;20377;-89
2024/02/16 11:51:49;;;;;;;1.03;0.63;;;10.90;99.90;;;;;;4992275;28;20744;-88
2024/02/16 11:54:15;;;;;;;6.70;0.67;;;10.80;99.90;;;;;;4993376;28;20246;-89
2024/02/16 11:56:51;;;;;;;0.77;0.63;;;10.90;99.90;;;;;;5008870;28;20305;-88
2024/02/16 11:59:18;;;;;;;0.97;0.77;;;11.00;99.90;;;;;;4993586;28;20223;-88
2024/02/16 12:01:54;;;;;;;0.40;0.37;;;11.10;99.90;;;;;;4988821;28;20231;-87
2024/02/16 12:04:24;;;;;;;0.40;0.40;;;11.00;99.90;;;;;;5011514;28;20227;-88
2024/02/16 12:07:00;;;;;;;0.73;0.50;;;11.00;99.90;;;;;;5008380;28;20703;-88
2024/02/16 12:09:27;;;;;;;2.23;0.40;;;10.90;99.90;;;;;;5025769;28;20234;-88
2024/02/16 12:11:54;;;;;;;0.53;0.50;;;11.00;99.90;;;;;;5009518;28;20233;-88
2024/02/16 12:14:22;;;;;;;0.30;0.30;;;11.00;99.90;;;;;;4985394;28;20710;-88
2024/02/16 12:16:52;;;;;;;0.37;0.27;;;10.80;99.90;;;;;;5004040;28;20310;-88
2024/02/16 12:19:22;;;;;;;0.30;0.30;;;11.00;99.90;;;;;;4991690;28;20229;-87
2024/02/16 12:21:58;;;;;;;0.50;0.50;;;11.10;99.90;;;;;;5008345;28;20195;-87
2024/02/16 12:24:24;;;;;;;6.60;0.93;;;11.10;99.90;;;;;;5010279;28;20194;-88
2024/02/16 12:26:51;;;;;;;0.77;0.47;;;11.10;99.90;;;;;;5006271;28;20224;-88
2024/02/16 12:29:17;;;;;;;0.50;0.50;;;11.20;99.90;;;;;;5023098;28;21184;-88
2024/02/16 12:31:44;;;;;;;0.37;0.37;;;11.20;99.90;;;;;;5006111;28;20583;-88
2024/02/16 12:34:11;;;;;;;1.50;1.23;;;11.40;99.90;;;;;;4981980;28;20215;-87
2024/02/16 12:36:40;;;;;;;2.67;1.13;;;11.30;99.90;;;;;;4983826;28;20283;-88
2024/02/16 12:39:08;;;;;;;1.40;0.73;;;11.40;99.90;;;;;;5007848;28;20230;-88
2024/02/16 12:41:35;;;;;;;0.53;0.53;;;11.30;99.90;;;;;;4992723;28;20714;-88
2024/02/16 12:44:01;;;;;;;1.10;1.10;;;11.40;99.90;;;;;;4989396;28;20718;-89
2024/02/16 12:46:30;;;;;;;0.90;0.60;;;11.30;99.90;;;;;;4980336;28;20230;-88